Time;durP1;ratioP1;P1;durP2;ratioP2;P2;SDS_P1;SDS_P2;PMS_P1;PMS_P2;Temp;Humidity;BMP_temperature;BMP_pressure;BME280_temperature;BME280_humidity;BME280_pressure;Samples;Min_cycle;Max_cycle;Signal;HPM_P1;HPM_P2
2023/09/23 00:02:18;;;;;;;3.47;2.65;;;11.80;99.90;;;;;;5080656;28;20035;-64
2023/09/23 00:04:44;;;;;;;5.80;2.97;;;11.70;99.90;;;;;;5060083;28;20116;-65
2023/09/23 00:07:10;;;;;;;3.05;2.03;;;11.70;99.90;;;;;;5069287;28;20598;-66
2023/09/23 00:09:36;;;;;;;5.60;2.70;;;11.70;99.90;;;;;;5081204;28;20058;-63
2023/09/23 00:12:02;;;;;;;5.25;2.95;;;11.70;99.90;;;;;;5075488;28;20054;-65
2023/09/23 00:14:31;;;;;;;2.83;2.35;;;11.70;99.90;;;;;;5076988;28;20024;-65
2023/09/23 00:16:56;;;;;;;4.07;2.22;;;11.70;99.90;;;;;;5058049;28;20044;-64
2023/09/23 00:19:22;;;;;;;4.68;2.40;;;11.70;99.90;;;;;;5066912;28;20028;-66
2023/09/23 00:21:48;;;;;;;8.60;1.90;;;11.70;99.90;;;;;;5080736;28;20159;-61
2023/09/23 00:24:14;;;;;;;2.63;1.70;;;11.70;99.90;;;;;;5066176;28;20036;-67
2023/09/23 00:26:39;;;;;;;4.03;2.10;;;11.70;99.90;;;;;;5074717;28;20033;-66
2023/09/23 00:29:05;;;;;;;4.13;1.70;;;11.70;99.90;;;;;;5079052;28;20028;-66
2023/09/23 00:31:31;;;;;;;3.20;1.33;;;11.70;99.90;;;;;;5076579;28;20674;-66
2023/09/23 00:33:57;;;;;;;3.00;1.25;;;11.60;99.90;;;;;;5073140;28;20428;-63
2023/09/23 00:36:22;;;;;;;3.53;1.15;;;11.60;99.90;;;;;;5078981;28;20559;-66
2023/09/23 00:38:48;;;;;;;4.97;1.50;;;11.60;99.90;;;;;;5080507;28;20028;-67
2023/09/23 00:41:14;;;;;;;4.25;1.77;;;11.70;99.90;;;;;;5072259;28;20032;-67
2023/09/23 00:43:40;;;;;;;1.52;1.30;;;11.70;99.90;;;;;;5075981;28;20033;-66
2023/09/23 00:46:07;;;;;;;7.00;1.90;;;11.70;99.90;;;;;;5075043;28;20040;-65
2023/09/23 00:48:42;;;;;;;1.95;1.17;;;11.70;99.90;;;;;;5060005;28;20448;-67
2023/09/23 00:51:09;;;;;;;2.30;1.08;;;11.60;99.90;;;;;;5046598;28;20032;-66
2023/09/23 00:53:39;;;;;;;3.67;1.05;;;11.60;99.90;;;;;;5071560;28;20066;-66
2023/09/23 00:56:05;;;;;;;2.65;1.48;;;11.60;99.90;;;;;;5070464;28;20037;-66
2023/09/23 00:58:31;;;;;;;2.92;1.50;;;11.60;99.90;;;;;;5050978;28;20024;-66
2023/09/23 01:00:58;;;;;;;2.33;1.10;;;11.60;99.90;;;;;;5068883;28;20054;-65
2023/09/23 01:03:23;;;;;;;2.20;1.45;;;11.60;99.90;;;;;;5064432;28;20024;-65
2023/09/23 01:06:08;;;;;;;2.60;1.38;;;11.60;99.90;;;;;;5053110;28;20043;-68
2023/09/23 01:08:34;;;;;;;5.25;1.42;;;11.60;99.90;;;;;;5080233;28;20033;-66
2023/09/23 01:11:00;;;;;;;1.75;1.20;;;11.50;99.90;;;;;;5077991;28;20020;-66
2023/09/23 01:13:29;;;;;;;2.20;1.45;;;11.40;99.90;;;;;;5068802;28;20036;-65
2023/09/23 01:15:55;;;;;;;3.00;1.45;;;11.30;99.90;;;;;;5050882;28;20051;-66
2023/09/23 01:18:22;;;;;;;7.93;2.10;;;11.30;99.90;;;;;;5078941;28;20078;-66
2023/09/23 01:20:51;;;;;;;2.55;1.27;;;11.30;99.90;;;;;;5074735;28;20036;-65
2023/09/23 01:23:17;;;;;;;7.57;1.33;;;11.30;99.90;;;;;;5077823;28;20111;-65
2023/09/23 01:25:43;;;;;;;2.25;1.30;;;11.30;99.90;;;;;;5077890;28;20508;-65
2023/09/23 01:28:11;;;;;;;3.90;1.85;;;11.30;99.90;;;;;;5056714;28;20657;-65
2023/09/23 01:30:40;;;;;;;1.70;1.13;;;11.40;99.90;;;;;;5069181;28;20619;-67
2023/09/23 01:33:10;;;;;;;4.63;1.23;;;11.40;99.90;;;;;;5058632;28;20028;-65
2023/09/23 01:35:35;;;;;;;2.50;1.60;;;11.40;99.90;;;;;;5076958;28;20057;-66
2023/09/23 01:38:05;;;;;;;4.50;1.58;;;11.40;99.90;;;;;;5078650;28;20046;-66
2023/09/23 01:40:36;;;;;;;2.08;1.60;;;11.50;99.90;;;;;;5077563;28;20548;-63
2023/09/23 01:43:02;;;;;;;2.83;1.70;;;11.50;99.90;;;;;;5078307;28;20032;-66
2023/09/23 01:45:30;;;;;;;4.13;1.23;;;11.50;99.90;;;;;;5075396;28;20028;-65
2023/09/23 01:47:56;;;;;;;1.88;1.10;;;11.50;99.90;;;;;;5055861;28;20040;-65
2023/09/23 01:50:23;;;;;;;1.75;0.98;;;11.50;99.90;;;;;;5053861;28;20033;-66
2023/09/23 01:52:49;;;;;;;3.05;1.17;;;11.50;99.90;;;;;;5075454;28;20043;-64
2023/09/23 01:55:17;;;;;;;3.42;1.30;;;11.60;99.90;;;;;;5078812;28;20135;-65
2023/09/23 01:57:43;;;;;;;3.20;1.25;;;11.50;99.90;;;;;;5078276;28;20032;-66
2023/09/23 02:00:14;;;;;;;2.13;1.55;;;11.50;99.90;;;;;;5077270;28;20555;-66
2023/09/23 02:02:40;;;;;;;2.72;1.30;;;11.60;99.90;;;;;;5078164;28;20039;-65
2023/09/23 02:05:07;;;;;;;4.30;1.38;;;11.60;99.90;;;;;;5077373;28;20017;-67
2023/09/23 02:07:32;;;;;;;2.42;1.10;;;11.60;99.90;;;;;;5078587;28;20040;-65
2023/09/23 02:09:58;;;;;;;4.50;1.30;;;11.50;99.90;;;;;;5074733;28;20063;-67
2023/09/23 02:12:24;;;;;;;1.88;1.35;;;11.60;99.90;;;;;;5076287;28;20035;-65
2023/09/23 02:14:51;;;;;;;3.63;1.88;;;11.60;99.90;;;;;;5074487;28;20073;-64
2023/09/23 02:17:19;;;;;;;1.60;1.30;;;11.60;99.90;;;;;;5076008;28;20044;-65
2023/09/23 02:19:47;;;;;;;3.97;1.40;;;11.50;99.90;;;;;;5074121;28;20147;-65
2023/09/23 02:22:13;;;;;;;5.93;1.52;;;11.50;99.90;;;;;;5077484;28;20031;-65
2023/09/23 02:24:39;;;;;;;2.78;1.85;;;11.40;99.90;;;;;;5072109;28;20032;-68
2023/09/23 02:27:04;;;;;;;3.67;1.45;;;11.40;99.90;;;;;;5081483;28;20020;-65
2023/09/23 02:29:33;;;;;;;2.40;1.80;;;11.30;99.90;;;;;;5075213;28;20028;-66
2023/09/23 02:32:00;;;;;;;7.43;1.83;;;11.30;99.90;;;;;;5073818;28;20043;-67
2023/09/23 02:34:28;;;;;;;4.22;1.80;;;11.30;99.90;;;;;;5074030;28;20017;-66
2023/09/23 02:36:54;;;;;;;4.55;1.52;;;11.20;99.90;;;;;;5075712;28;20044;-65
2023/09/23 02:39:20;;;;;;;2.40;1.58;;;11.10;99.90;;;;;;5077232;28;20568;-66
2023/09/23 02:41:50;;;;;;;2.45;1.52;;;11.00;99.90;;;;;;5078920;28;20092;-66
2023/09/23 02:44:20;;;;;;;2.88;1.67;;;10.90;99.90;;;;;;5076799;28;20404;-65
2023/09/23 02:46:49;;;;;;;4.63;2.00;;;10.90;99.90;;;;;;5076814;28;20039;-64
2023/09/23 02:49:16;;;;;;;2.08;1.42;;;10.80;99.90;;;;;;5074510;28;20043;-64
2023/09/23 02:51:43;;;;;;;2.83;1.55;;;10.80;99.90;;;;;;5069651;28;20024;-67
2023/09/23 02:54:11;;;;;;;7.80;1.90;;;10.80;99.90;;;;;;5057927;28;20521;-64
2023/09/23 02:56:37;;;;;;;2.35;1.48;;;10.80;99.90;;;;;;5072680;28;20043;-65
2023/09/23 02:59:13;;;;;;;4.28;1.58;;;10.80;99.90;;;;;;5077589;28;20511;-65
2023/09/23 03:01:48;;;;;;;3.90;1.30;;;10.70;99.90;;;;;;5078872;28;20027;-64
2023/09/23 03:04:19;;;;;;;5.35;1.50;;;10.80;99.90;;;;;;5048739;28;20134;-65
2023/09/23 03:06:54;;;;;;;2.35;1.77;;;10.80;99.90;;;;;;5074615;28;20055;-66
2023/09/23 03:09:23;;;;;;;4.72;1.55;;;10.80;99.90;;;;;;5075182;28;20073;-65
2023/09/23 03:11:55;;;;;;;6.40;1.50;;;10.90;99.90;;;;;;5073775;28;20111;-68
2023/09/23 03:14:30;;;;;;;4.13;1.20;;;10.90;99.90;;;;;;5070020;28;20078;-67
2023/09/23 03:16:57;;;;;;;3.58;1.48;;;10.90;99.90;;;;;;5039141;28;20574;-65
2023/09/23 03:19:26;;;;;;;4.88;1.50;;;10.90;99.90;;;;;;5050648;28;20074;-65
2023/09/23 03:21:56;;;;;;;2.35;1.52;;;10.90;99.90;;;;;;5076722;28;20063;-66
2023/09/23 03:24:25;;;;;;;2.35;1.48;;;10.90;99.90;;;;;;5047480;28;20039;-67
2023/09/23 03:26:56;;;;;;;2.25;1.60;;;10.90;99.90;;;;;;5060283;28;20047;-66
2023/09/23 03:29:32;;;;;;;4.65;1.35;;;10.90;99.90;;;;;;5074957;28;20066;-67
2023/09/23 03:31:59;;;;;;;2.72;1.60;;;10.90;99.90;;;;;;5073415;28;20024;-66
2023/09/23 03:34:26;;;;;;;1.83;1.20;;;10.90;99.90;;;;;;5076427;28;20031;-65
2023/09/23 03:36:53;;;;;;;5.40;1.17;;;10.80;99.90;;;;;;5073664;28;20417;-66
2023/09/23 03:39:19;;;;;;;1.55;1.30;;;10.70;99.90;;;;;;5071700;28;20035;-66
2023/09/23 03:41:46;;;;;;;4.78;1.90;;;10.70;99.90;;;;;;5075301;28;20052;-68
2023/09/23 03:44:16;;;;;;;2.75;1.40;;;10.70;99.90;;;;;;5074224;28;20122;-65
2023/09/23 03:46:50;;;;;;;5.45;1.38;;;10.70;99.90;;;;;;5077568;28;20032;-66
2023/09/23 03:49:17;;;;;;;3.70;1.73;;;10.70;99.90;;;;;;5055972;28;20490;-66
2023/09/23 03:51:43;;;;;;;1.80;1.20;;;10.60;99.90;;;;;;5063671;28;20037;-65
2023/09/23 03:54:09;;;;;;;5.90;1.40;;;10.60;99.90;;;;;;5072249;28;20553;-64
2023/09/23 03:56:35;;;;;;;2.15;1.40;;;10.50;99.90;;;;;;5067056;28;20277;-67
2023/09/23 03:59:05;;;;;;;5.47;1.77;;;10.40;99.90;;;;;;5065307;28;20082;-66
2023/09/23 04:01:30;;;;;;;3.80;1.48;;;10.30;99.90;;;;;;5075465;28;20028;-64
2023/09/23 04:03:56;;;;;;;3.80;1.70;;;10.20;99.90;;;;;;5073176;28;20024;-65
2023/09/23 04:06:22;;;;;;;4.47;1.73;;;10.10;99.90;;;;;;5074540;28;20036;-66
2023/09/23 04:08:49;;;;;;;1.67;1.33;;;10.10;99.90;;;;;;5077938;28;20040;-65
2023/09/23 04:11:15;;;;;;;4.30;1.60;;;10.00;99.90;;;;;;5076009;28;20040;-65
2023/09/23 04:13:42;;;;;;;2.72;1.17;;;10.00;99.90;;;;;;5076265;28;20032;-65
2023/09/23 04:16:09;;;;;;;2.45;1.63;;;9.90;99.90;;;;;;5078424;27;20048;-65
2023/09/23 04:18:34;;;;;;;1.95;1.40;;;9.90;99.90;;;;;;5075938;28;20397;-66
2023/09/23 04:21:01;;;;;;;2.67;1.70;;;9.80;99.90;;;;;;5073221;28;20036;-65
2023/09/23 04:23:27;;;;;;;6.30;2.47;;;9.80;99.90;;;;;;5076561;28;20033;-65
2023/09/23 04:25:52;;;;;;;1.92;1.40;;;9.70;99.90;;;;;;5074855;28;20024;-66
2023/09/23 04:28:22;;;;;;;3.00;1.40;;;9.70;99.90;;;;;;5047003;28;20051;-66
2023/09/23 04:30:55;;;;;;;2.33;1.60;;;9.70;99.90;;;;;;5077512;28;20073;-66
2023/09/23 04:33:22;;;;;;;2.45;1.60;;;9.70;99.90;;;;;;5073593;28;20496;-65
2023/09/23 04:35:55;;;;;;;6.35;1.70;;;9.70;99.90;;;;;;5075220;28;20070;-64
2023/09/23 04:38:20;;;;;;;3.85;1.67;;;9.70;99.90;;;;;;5078990;28;20052;-66
2023/09/23 04:40:47;;;;;;;5.95;1.70;;;9.70;99.90;;;;;;5078554;28;20055;-65
2023/09/23 04:43:13;;;;;;;2.28;1.50;;;9.70;99.90;;;;;;5062458;28;20043;-62
2023/09/23 04:45:38;;;;;;;11.05;2.03;;;9.80;99.90;;;;;;5076305;28;20032;-67
2023/09/23 04:48:06;;;;;;;3.50;1.70;;;9.80;99.90;;;;;;5078379;28;20041;-65
2023/09/23 04:50:31;;;;;;;3.28;1.60;;;9.80;99.90;;;;;;5073649;28;20021;-66
2023/09/23 04:52:59;;;;;;;4.70;1.60;;;9.90;99.90;;;;;;5075571;28;20044;-65
2023/09/23 04:55:25;;;;;;;5.18;1.90;;;10.00;99.90;;;;;;5071451;28;20044;-65
2023/09/23 04:57:50;;;;;;;4.55;1.92;;;10.00;99.90;;;;;;5079974;28;20100;-65
2023/09/23 05:00:17;;;;;;;13.68;1.77;;;10.10;99.90;;;;;;5077345;28;20036;-64
2023/09/23 05:02:43;;;;;;;3.80;2.20;;;10.20;99.90;;;;;;5073825;28;20149;-65
2023/09/23 05:05:12;;;;;;;5.00;1.80;;;10.20;99.90;;;;;;5072705;28;20050;-66
2023/09/23 05:07:38;;;;;;;5.55;1.40;;;10.30;99.90;;;;;;5075043;28;20657;-66
2023/09/23 05:10:06;;;;;;;2.85;1.63;;;10.40;99.90;;;;;;5062014;28;20124;-66
2023/09/23 05:12:32;;;;;;;6.40;2.03;;;10.40;99.90;;;;;;5069448;28;20024;-65
2023/09/23 05:14:58;;;;;;;5.03;2.50;;;10.50;99.90;;;;;;5075272;28;20050;-66
2023/09/23 05:17:26;;;;;;;3.03;1.30;;;10.50;99.90;;;;;;5045908;28;20051;-65
2023/09/23 05:19:52;;;;;;;2.13;1.42;;;10.50;99.90;;;;;;5076294;28;20074;-67
2023/09/23 05:22:19;;;;;;;2.30;1.10;;;10.60;99.90;;;;;;5061786;28;20474;-66
2023/09/23 05:24:50;;;;;;;3.33;1.38;;;10.60;99.90;;;;;;5077627;28;20038;-66
2023/09/23 05:27:16;;;;;;;3.70;1.08;;;10.60;99.90;;;;;;5070334;28;20137;-64
2023/09/23 05:29:44;;;;;;;7.93;1.48;;;10.70;99.90;;;;;;5058916;28;21273;-66
2023/09/23 05:32:10;;;;;;;3.45;1.48;;;10.70;99.90;;;;;;5074641;28;20205;-65
2023/09/23 05:34:39;;;;;;;2.53;1.30;;;10.70;99.90;;;;;;5078049;28;20031;-62
2023/09/23 05:37:06;;;;;;;1.85;1.35;;;10.70;99.90;;;;;;5078824;28;20055;-66
2023/09/23 05:39:34;;;;;;;2.33;1.38;;;10.70;99.90;;;;;;5079167;28;20035;-66
2023/09/23 05:42:03;;;;;;;5.40;1.25;;;10.80;99.90;;;;;;5074351;28;20024;-65
2023/09/23 05:44:29;;;;;;;10.68;1.50;;;10.80;99.90;;;;;;5077019;28;20496;-64
2023/09/23 05:46:54;;;;;;;5.00;1.48;;;10.90;99.90;;;;;;5071680;28;20037;-65
2023/09/23 05:49:20;;;;;;;10.77;3.13;;;10.90;99.90;;;;;;5066340;28;20032;-68
2023/09/23 05:51:46;;;;;;;2.88;1.17;;;11.00;99.90;;;;;;5066870;28;20032;-65
2023/09/23 05:54:12;;;;;;;4.35;1.45;;;11.00;99.90;;;;;;5076176;28;20077;-66
2023/09/23 05:56:38;;;;;;;7.45;1.40;;;11.10;99.90;;;;;;5074361;28;20032;-68
2023/09/23 05:59:05;;;;;;;10.95;1.40;;;11.10;99.90;;;;;;5075145;28;20024;-66
2023/09/23 06:01:31;;;;;;;3.83;1.02;;;11.10;99.90;;;;;;5067075;28;20025;-65
2023/09/23 06:03:58;;;;;;;4.57;1.42;;;11.10;99.90;;;;;;5070434;28;20036;-66
2023/09/23 06:06:23;;;;;;;8.50;1.50;;;11.10;99.90;;;;;;5044781;28;20033;-65
2023/09/23 06:08:50;;;;;;;4.82;1.40;;;11.20;99.90;;;;;;5073011;28;20039;-64
2023/09/23 06:11:16;;;;;;;1.75;1.10;;;11.20;99.90;;;;;;5073676;28;21268;-63
2023/09/23 06:13:41;;;;;;;3.63;1.35;;;11.20;99.90;;;;;;5064737;28;20064;-65
2023/09/23 06:16:07;;;;;;;6.03;1.15;;;11.30;99.90;;;;;;5050475;28;20147;-68
2023/09/23 06:18:33;;;;;;;4.22;1.92;;;11.40;99.90;;;;;;5072620;28;20061;-66
2023/09/23 06:21:00;;;;;;;15.82;2.60;;;11.40;99.90;;;;;;5073936;28;20122;-66
2023/09/23 06:23:25;;;;;;;5.15;1.58;;;11.50;99.90;;;;;;5078908;28;20505;-67
2023/09/23 06:26:00;;;;;;;3.78;1.10;;;11.50;99.90;;;;;;5068024;28;20042;-66
2023/09/23 06:28:26;;;;;;;1.98;1.38;;;11.50;99.90;;;;;;5069707;28;20043;-64
2023/09/23 06:30:52;;;;;;;4.50;1.55;;;11.60;99.90;;;;;;5076171;28;20032;-61
2023/09/23 06:33:19;;;;;;;3.17;1.55;;;11.70;99.90;;;;;;5056005;28;20017;-66
2023/09/23 06:35:45;;;;;;;2.80;1.20;;;11.80;99.90;;;;;;5075029;28;20040;-64
2023/09/23 06:38:11;;;;;;;8.45;1.30;;;11.90;99.90;;;;;;5076730;28;20501;-64
2023/09/23 06:40:38;;;;;;;2.67;1.25;;;11.90;99.90;;;;;;5072155;28;20036;-66
2023/09/23 06:43:04;;;;;;;5.97;1.48;;;12.10;99.90;;;;;;5068995;28;20024;-65
2023/09/23 06:45:30;;;;;;;3.25;1.70;;;12.20;99.90;;;;;;5076865;28;20031;-63
2023/09/23 06:47:55;;;;;;;4.32;1.10;;;12.20;99.90;;;;;;5077102;28;20020;-64
2023/09/23 06:50:21;;;;;;;9.85;1.40;;;12.30;99.90;;;;;;5077545;28;20059;-65
2023/09/23 06:52:46;;;;;;;4.32;1.35;;;12.30;99.90;;;;;;5072932;28;20028;-63
2023/09/23 06:55:12;;;;;;;2.33;1.10;;;12.40;99.90;;;;;;5075620;28;20028;-65
2023/09/23 06:57:37;;;;;;;6.10;1.48;;;12.50;99.90;;;;;;5076592;28;20485;-65
2023/09/23 07:00:06;;;;;;;4.13;1.40;;;12.50;99.90;;;;;;5074290;28;20028;-65
2023/09/23 07:02:32;;;;;;;3.17;1.52;;;12.60;99.90;;;;;;5075900;28;20024;-66
2023/09/23 07:04:58;;;;;;;5.63;1.25;;;12.70;99.90;;;;;;5077395;28;20035;-65
2023/09/23 07:07:23;;;;;;;4.40;1.25;;;12.80;99.90;;;;;;5076597;28;20110;-65
2023/09/23 07:09:49;;;;;;;2.92;1.00;;;13.00;99.90;;;;;;5057271;28;20029;-65
2023/09/23 07:12:14;;;;;;;6.25;2.10;;;13.20;99.90;;;;;;5067477;28;20047;-65
2023/09/23 07:14:41;;;;;;;1.83;1.00;;;13.40;99.90;;;;;;5075663;28;20024;-66
2023/09/23 07:17:06;;;;;;;3.13;1.20;;;13.40;99.90;;;;;;5070575;28;20049;-66
2023/09/23 07:19:33;;;;;;;3.50;1.38;;;13.50;99.90;;;;;;5078132;28;20085;-66
2023/09/23 07:21:59;;;;;;;3.83;1.00;;;13.60;99.90;;;;;;5062426;28;20024;-66
2023/09/23 07:24:26;;;;;;;2.97;1.08;;;13.60;99.90;;;;;;5066163;28;20043;-66
2023/09/23 07:26:54;;;;;;;3.00;1.20;;;13.60;99.90;;;;;;5068753;28;20024;-64
2023/09/23 07:29:20;;;;;;;7.00;1.42;;;13.70;99.90;;;;;;5066463;28;20082;-66
2023/09/23 07:31:45;;;;;;;3.47;1.10;;;13.90;99.90;;;;;;5074417;28;20036;-65
2023/09/23 07:34:12;;;;;;;4.60;1.10;;;14.00;99.90;;;;;;5076686;28;20036;-65
2023/09/23 07:36:37;;;;;;;5.90;0.90;;;14.00;99.90;;;;;;5072399;28;20036;-66
2023/09/23 07:39:03;;;;;;;5.35;1.08;;;14.20;99.90;;;;;;5073901;28;20028;-67
2023/09/23 07:41:29;;;;;;;3.25;0.90;;;14.10;99.90;;;;;;5075379;28;20038;-66
2023/09/23 07:43:54;;;;;;;3.47;1.35;;;14.10;99.90;;;;;;5077133;28;20517;-66
2023/09/23 07:46:20;;;;;;;8.75;1.08;;;14.10;99.90;;;;;;5075411;28;20032;-65
2023/09/23 07:48:46;;;;;;;2.63;0.93;;;14.10;99.90;;;;;;5053281;28;20044;-66
2023/09/23 07:51:12;;;;;;;4.93;1.42;;;14.20;99.90;;;;;;5072883;28;20028;-64
2023/09/23 07:53:38;;;;;;;2.95;1.25;;;14.40;99.90;;;;;;5074844;28;20055;-67
2023/09/23 07:56:04;;;;;;;2.25;0.70;;;14.50;99.90;;;;;;5075288;28;20040;-66
2023/09/23 07:58:29;;;;;;;3.10;1.02;;;15.00;99.90;;;;;;5063196;28;20039;-64
2023/09/23 08:00:55;;;;;;;2.20;1.00;;;15.20;99.90;;;;;;5052926;28;20020;-65
2023/09/23 08:03:20;;;;;;;2.80;1.02;;;15.60;99.90;;;;;;5075411;28;20067;-67
2023/09/23 08:05:46;;;;;;;4.60;1.30;;;15.60;99.90;;;;;;5074462;28;20028;-66
2023/09/23 08:08:12;;;;;;;3.88;0.80;;;15.60;99.90;;;;;;5076566;28;20037;-66
2023/09/23 08:10:37;;;;;;;8.20;1.08;;;15.50;99.90;;;;;;5057848;28;20044;-66
2023/09/23 08:13:03;;;;;;;1.60;0.65;;;15.50;99.90;;;;;;5068082;28;20107;-66
2023/09/23 08:15:28;;;;;;;4.25;0.73;;;15.40;99.90;;;;;;5079321;28;20038;-67
2023/09/23 08:17:54;;;;;;;1.77;0.70;;;15.40;99.90;;;;;;5063722;27;20457;-66
2023/09/23 08:20:22;;;;;;;4.85;1.13;;;15.50;99.90;;;;;;5077286;28;20041;-67
2023/09/23 08:22:48;;;;;;;2.17;1.00;;;16.20;99.90;;;;;;5077378;28;20087;-66
2023/09/23 08:25:15;;;;;;;2.80;1.00;;;16.30;99.90;;;;;;5069955;28;20031;-66
2023/09/23 08:27:41;;;;;;;4.78;1.38;;;16.50;99.90;;;;;;5072485;28;20024;-66
2023/09/23 08:30:11;;;;;;;0.85;0.50;;;17.30;99.90;;;;;;5079866;28;20077;-66
2023/09/23 08:32:40;;;;;;;3.42;1.23;;;17.60;99.90;;;;;;5073227;28;20028;-65
2023/09/23 08:35:07;;;;;;;2.63;0.70;;;17.30;99.90;;;;;;5075150;28;20119;-67
2023/09/23 08:37:33;;;;;;;3.28;0.90;;;17.20;99.90;;;;;;5069947;28;20481;-66
2023/09/23 08:39:59;;;;;;;3.53;0.70;;;17.30;99.90;;;;;;5077784;28;20024;-67
2023/09/23 08:42:25;;;;;;;2.42;0.88;;;17.10;99.90;;;;;;5079748;28;20061;-66
2023/09/23 08:44:51;;;;;;;1.42;0.68;;;17.00;99.90;;;;;;5079978;28;20028;-67
2023/09/23 08:47:18;;;;;;;1.88;0.65;;;17.70;99.90;;;;;;5063923;28;20029;-66
2023/09/23 08:49:47;;;;;;;3.20;1.25;;;17.90;99.90;;;;;;5078293;28;20032;-66
2023/09/23 08:52:14;;;;;;;3.28;0.70;;;18.70;99.90;;;;;;5077996;28;20035;-67
2023/09/23 08:54:40;;;;;;;5.03;1.02;;;18.70;99.90;;;;;;5073424;28;20024;-66
2023/09/23 08:57:05;;;;;;;1.15;0.68;;;18.90;99.90;;;;;;5072827;28;20024;-66
2023/09/23 08:59:31;;;;;;;5.20;0.75;;;19.00;99.90;;;;;;5078532;28;20375;-65
2023/09/23 09:01:57;;;;;;;4.25;1.00;;;19.00;99.90;;;;;;5070247;28;20058;-66
2023/09/23 09:04:24;;;;;;;4.45;0.63;;;18.70;99.90;;;;;;5071829;28;20387;-67
2023/09/23 09:06:50;;;;;;;2.38;0.90;;;18.60;99.90;;;;;;5071932;28;20408;-66
2023/09/23 09:09:17;;;;;;;4.97;0.77;;;18.20;99.90;;;;;;5078514;28;20645;-66
2023/09/23 09:11:45;;;;;;;1.38;0.52;;;17.80;99.90;;;;;;5077122;28;20039;-67
2023/09/23 09:14:11;;;;;;;0.80;0.60;;;17.60;99.90;;;;;;5079312;28;20028;-67
2023/09/23 09:16:38;;;;;;;2.40;1.00;;;17.70;99.90;;;;;;5054255;28;20054;-66
2023/09/23 09:19:04;;;;;;;3.90;0.65;;;18.20;99.90;;;;;;5074919;28;20036;-66
2023/09/23 09:21:31;;;;;;;3.53;0.80;;;18.40;99.90;;;;;;5076963;28;20043;-67
2023/09/23 09:23:57;;;;;;;3.03;0.80;;;18.60;99.90;;;;;;5054897;28;20218;-66
2023/09/23 09:26:24;;;;;;;1.65;0.55;;;19.00;99.90;;;;;;5066052;28;20103;-66
2023/09/23 09:28:50;;;;;;;2.45;0.68;;;19.30;99.90;;;;;;5077656;28;20032;-66
2023/09/23 09:31:17;;;;;;;2.13;0.65;;;19.30;99.90;;;;;;5069087;28;20472;-65
2023/09/23 09:33:47;;;;;;;4.10;0.90;;;19.10;99.90;;;;;;5079010;28;20093;-66
2023/09/23 09:36:18;;;;;;;3.72;0.77;;;19.00;99.90;;;;;;5051787;28;20405;-66
2023/09/23 09:38:45;;;;;;;2.70;0.82;;;19.40;99.90;;;;;;5078507;28;20024;-67
2023/09/23 09:41:21;;;;;;;5.20;1.02;;;19.50;99.90;;;;;;5069802;28;20021;-66
2023/09/23 09:43:48;;;;;;;1.02;0.57;;;19.70;99.90;;;;;;5076312;28;20013;-68
2023/09/23 09:46:14;;;;;;;4.60;0.60;;;19.60;99.90;;;;;;5078792;28;20032;-66
2023/09/23 09:48:41;;;;;;;2.10;0.70;;;19.10;99.90;;;;;;5073424;28;20035;-66
2023/09/23 09:51:08;;;;;;;6.38;0.80;;;19.30;99.90;;;;;;5075204;28;20041;-68
2023/09/23 09:53:36;;;;;;;2.47;1.10;;;19.10;99.90;;;;;;5076486;28;20086;-66
2023/09/23 09:56:04;;;;;;;5.47;0.85;;;19.00;99.90;;;;;;5078494;28;20021;-66
2023/09/23 09:58:39;;;;;;;1.23;0.65;;;18.70;99.90;;;;;;5075200;28;20449;-67
2023/09/23 10:01:11;;;;;;;3.10;1.20;;;18.30;99.90;;;;;;5075198;28;20047;-67
2023/09/23 10:03:37;;;;;;;4.13;1.00;;;17.90;99.90;;;;;;5062660;28;20031;-66
2023/09/23 10:06:06;;;;;;;3.00;0.98;;;17.60;99.90;;;;;;5076541;28;20143;-66
2023/09/23 10:08:38;;;;;;;3.33;0.80;;;17.80;99.90;;;;;;5077979;28;20036;-65
2023/09/23 10:11:08;;;;;;;2.57;0.60;;;18.40;99.90;;;;;;5064580;28;20058;-65
2023/09/23 10:13:34;;;;;;;2.65;1.00;;;18.50;99.90;;;;;;5050026;28;20830;-67
2023/09/23 10:16:18;;;;;;;2.83;0.98;;;19.00;99.90;;;;;;5067292;27;20032;-68
2023/09/23 10:18:53;;;;;;;3.40;0.80;;;19.10;99.90;;;;;;5065255;28;20236;-69
2023/09/23 10:21:27;;;;;;;4.25;0.95;;;19.10;99.90;;;;;;5075974;28;20108;-66
2023/09/23 10:23:55;;;;;;;3.40;0.63;;;18.90;99.90;;;;;;5068479;28;20017;-66
2023/09/23 10:26:23;;;;;;;2.67;0.90;;;19.00;99.90;;;;;;5077452;28;20412;-66
2023/09/23 10:29:04;;;;;;;4.28;0.70;;;18.70;99.90;;;;;;5076672;28;20656;-68
2023/09/23 10:31:32;;;;;;;2.70;0.73;;;18.60;99.90;;;;;;5075363;28;20425;-65
2023/09/23 10:34:04;;;;;;;3.42;0.90;;;18.20;99.90;;;;;;5074519;28;20034;-66
2023/09/23 10:36:29;;;;;;;2.28;0.80;;;17.50;99.90;;;;;;5076163;28;20028;-66
2023/09/23 10:38:56;;;;;;;2.03;0.50;;;17.20;99.90;;;;;;5075355;28;20123;-65
2023/09/23 10:41:32;;;;;;;1.48;0.60;;;17.10;99.90;;;;;;5075228;28;20024;-65
2023/09/23 10:43:57;;;;;;;3.35;0.80;;;17.20;99.90;;;;;;5026043;28;20049;-66
2023/09/23 10:46:23;;;;;;;2.88;0.85;;;17.50;99.90;;;;;;5074854;28;20032;-67
2023/09/23 10:48:49;;;;;;;4.18;1.10;;;18.00;99.90;;;;;;5073417;28;20029;-66
2023/09/23 10:51:15;;;;;;;5.30;0.73;;;18.50;99.90;;;;;;5076482;28;20032;-65
2023/09/23 10:53:42;;;;;;;2.33;1.05;;;18.70;99.90;;;;;;5076042;28;20464;-67
2023/09/23 10:56:10;;;;;;;1.17;0.55;;;18.70;99.90;;;;;;5065718;28;20125;-66
2023/09/23 10:58:36;;;;;;;4.38;0.90;;;18.60;99.90;;;;;;5059345;28;20441;-67
2023/09/23 11:01:04;;;;;;;2.00;0.68;;;18.10;99.90;;;;;;5072658;28;20093;-64
2023/09/23 11:03:30;;;;;;;3.70;0.73;;;17.80;99.90;;;;;;5075337;28;20024;-68
2023/09/23 11:05:56;;;;;;;0.75;0.45;;;17.80;99.90;;;;;;5076339;28;20111;-66
2023/09/23 11:08:22;;;;;;;2.97;0.68;;;17.70;99.90;;;;;;5076811;28;20513;-66
2023/09/23 11:10:49;;;;;;;1.83;0.60;;;17.80;99.90;;;;;;5071178;28;21145;-65
2023/09/23 11:13:15;;;;;;;3.40;0.70;;;18.10;99.90;;;;;;5076255;28;20016;-66
2023/09/23 11:15:45;;;;;;;0.68;0.32;;;18.00;99.90;;;;;;5074901;28;20055;-66
2023/09/23 11:18:19;;;;;;;3.45;0.63;;;18.10;99.90;;;;;;5057872;28;20121;-65
2023/09/23 11:20:46;;;;;;;5.50;0.70;;;18.00;99.90;;;;;;5075569;28;20540;-68
2023/09/23 11:23:12;;;;;;;3.13;0.75;;;17.90;99.90;;;;;;5076150;28;20099;-66
2023/09/23 11:25:44;;;;;;;5.50;0.52;;;17.80;99.90;;;;;;5074656;28;20549;-66
2023/09/23 11:28:25;;;;;;;2.72;0.65;;;17.60;99.90;;;;;;5076889;28;20034;-67
2023/09/23 11:30:52;;;;;;;2.10;0.88;;;17.40;99.90;;;;;;5076783;28;20164;-67
2023/09/23 11:33:18;;;;;;;1.10;0.40;;;17.50;99.90;;;;;;5056658;28;20611;-67
2023/09/23 11:35:44;;;;;;;3.08;0.70;;;17.40;99.90;;;;;;5061640;28;20029;-66
2023/09/23 11:38:11;;;;;;;2.30;0.82;;;17.30;99.90;;;;;;5075667;28;20099;-66
2023/09/23 11:40:37;;;;;;;1.67;0.40;;;17.10;99.90;;;;;;5067922;28;20474;-64
2023/09/23 11:43:03;;;;;;;2.17;0.57;;;17.20;99.90;;;;;;5077921;28;20132;-65
2023/09/23 11:45:29;;;;;;;1.88;0.95;;;16.90;99.90;;;;;;5072166;28;20044;-66
2023/09/23 11:47:56;;;;;;;2.47;0.80;;;17.10;99.90;;;;;;5076620;28;20039;-66
2023/09/23 11:50:23;;;;;;;3.90;0.88;;;17.40;99.90;;;;;;5070375;28;20390;-64
2023/09/23 11:52:48;;;;;;;1.10;0.80;;;17.50;99.90;;;;;;5075953;28;20070;-66
2023/09/23 11:55:16;;;;;;;1.10;0.68;;;17.60;99.90;;;;;;5079174;28;20061;-66
2023/09/23 11:57:42;;;;;;;1.55;0.47;;;17.70;99.90;;;;;;5079216;28;20033;-65
2023/09/23 12:00:10;;;;;;;1.30;0.55;;;17.60;99.90;;;;;;5079006;28;20036;-65
2023/09/23 12:02:39;;;;;;;3.20;0.70;;;17.60;99.90;;;;;;5077270;28;20025;-65
2023/09/23 12:05:07;;;;;;;1.05;0.52;;;17.80;99.90;;;;;;5075978;28;20121;-67
2023/09/23 12:07:34;;;;;;;5.57;0.95;;;17.90;99.90;;;;;;5072264;28;20033;-66
2023/09/23 12:10:00;;;;;;;1.27;0.70;;;17.90;99.90;;;;;;5079219;28;20034;-67
2023/09/23 12:12:26;;;;;;;5.20;0.60;;;18.00;99.90;;;;;;5080709;28;20028;-68
2023/09/23 12:14:53;;;;;;;2.45;0.82;;;18.20;99.90;;;;;;5073168;28;20039;-66
2023/09/23 12:17:18;;;;;;;1.25;0.63;;;18.10;99.90;;;;;;5063788;28;20052;-66
2023/09/23 12:19:44;;;;;;;2.03;0.60;;;17.70;99.90;;;;;;5076477;28;20028;-66
2023/09/23 12:22:15;;;;;;;2.15;0.80;;;17.70;99.90;;;;;;5075961;28;20041;-66
2023/09/23 12:24:42;;;;;;;4.80;0.65;;;17.60;99.90;;;;;;5080273;28;20028;-63
2023/09/23 12:27:08;;;;;;;3.13;1.08;;;17.70;99.90;;;;;;5065017;28;20023;-65
2023/09/23 12:29:34;;;;;;;2.30;0.93;;;17.70;99.90;;;;;;5066541;28;20028;-65
2023/09/23 12:32:00;;;;;;;5.53;1.63;;;17.80;99.90;;;;;;5060259;28;21215;-65
2023/09/23 12:34:26;;;;;;;1.95;0.85;;;18.10;99.90;;;;;;5075306;28;20051;-64
2023/09/23 12:36:52;;;;;;;1.83;0.85;;;18.10;99.90;;;;;;5063637;28;20028;-66
2023/09/23 12:39:17;;;;;;;3.33;0.65;;;18.00;99.90;;;;;;5076793;28;20065;-66
2023/09/23 12:41:43;;;;;;;4.50;0.70;;;17.90;99.90;;;;;;5075120;28;20036;-66
2023/09/23 12:44:09;;;;;;;1.95;0.50;;;17.90;99.90;;;;;;5068407;28;20107;-66
2023/09/23 12:46:35;;;;;;;2.88;0.80;;;17.80;99.90;;;;;;5077454;28;20035;-65
2023/09/23 12:49:00;;;;;;;2.55;0.70;;;17.80;99.90;;;;;;5069562;28;20033;-66